Time;durP1;ratioP1;P1;durP2;ratioP2;P2;SDS_P1;SDS_P2;PMS_P1;PMS_P2;Temp;Humidity;BMP_temperature;BMP_pressure;BME280_temperature;BME280_humidity;BME280_pressure;Samples;Min_cycle;Max_cycle;Signal;HPM_P1;HPM_P2
2023/08/21 00:00:55;;;;;;;5.07;1.90;;;;;;;21.54;100.00;-18605.78;4986536;28;20503;-78
2023/08/21 00:03:21;;;;;;;3.47;2.00;;;;;;;21.52;100.00;-18605.22;4987830;28;20129;-78
2023/08/21 00:05:46;;;;;;;5.82;2.30;;;;;;;21.48;100.00;-18604.28;4984049;28;20053;-78
2023/08/21 00:08:12;;;;;;;5.63;2.58;;;;;;;21.24;100.00;-18597.75;4992153;28;20050;-78
2023/08/21 00:10:38;;;;;;;5.90;2.20;;;;;;;21.36;100.00;-18601.00;4987112;28;20057;-78
2023/08/21 00:13:04;;;;;;;6.78;2.42;;;;;;;21.55;100.00;-18606.19;4987659;28;20054;-78
2023/08/21 00:15:29;;;;;;;4.95;2.15;;;;;;;21.63;100.00;-18608.22;4983250;28;20086;-78
2023/08/21 00:17:55;;;;;;;8.30;2.95;;;;;;;21.39;100.00;-18601.97;4984516;28;20077;-78
2023/08/21 00:20:20;;;;;;;4.80;2.70;;;;;;;21.44;100.00;-18603.06;4983412;28;20038;-77
2023/08/21 00:22:46;;;;;;;10.95;2.67;;;;;;;21.28;100.00;-18598.84;4984079;28;20042;-77
2023/08/21 00:25:11;;;;;;;7.25;2.72;;;;;;;21.32;100.00;-18600.06;4986092;28;20050;-78
2023/08/21 00:27:37;;;;;;;7.78;2.83;;;;;;;21.17;100.00;-18595.97;4983553;28;20501;-77
2023/08/21 00:30:02;;;;;;;5.57;2.60;;;;;;;21.21;100.00;-18597.06;4983406;28;20416;-78
2023/08/21 00:32:28;;;;;;;4.53;2.42;;;;;;;21.18;100.00;-18596.38;4985567;28;20055;-78
2023/08/21 00:34:53;;;;;;;6.90;3.08;;;;;;;20.93;100.00;-18589.59;4977377;28;20039;-77
2023/08/21 00:37:19;;;;;;;5.75;2.90;;;;;;;20.87;100.00;-18588.09;4989192;28;20141;-77
2023/08/21 00:39:45;;;;;;;6.38;2.42;;;;;;;20.94;100.00;-18589.88;4988638;28;20069;-77
2023/08/21 00:42:10;;;;;;;3.60;2.17;;;;;;;21.08;100.00;-18593.66;4991425;28;20070;-77
2023/08/21 00:44:35;;;;;;;7.43;2.65;;;;;;;20.99;100.00;-18591.22;4989632;28;20668;-78
2023/08/21 00:47:01;;;;;;;6.30;2.83;;;;;;;21.01;100.00;-18591.78;4989473;28;20467;-77
2023/08/21 00:49:27;;;;;;;4.35;2.55;;;;;;;20.82;100.00;-18586.72;4990837;28;20047;-77
2023/08/21 00:51:53;;;;;;;7.18;2.80;;;;;;;20.80;100.00;-18586.19;4990178;28;20125;-77
2023/08/21 00:54:19;;;;;;;6.43;2.55;;;;;;;20.49;100.00;-18577.88;4992486;28;20046;-78
2023/08/21 00:56:45;;;;;;;8.82;3.00;;;;;;;20.64;100.00;-18581.84;4988495;28;20093;-78
2023/08/21 00:59:11;;;;;;;14.30;3.80;;;;;;;20.77;100.00;-18585.25;4991156;28;20465;-77
2023/08/21 01:01:37;;;;;;;4.60;2.65;;;;;;;20.58;100.00;-18580.34;4989645;28;20682;-77
2023/08/21 01:04:03;;;;;;;6.63;2.97;;;;;;;20.59;100.00;-18580.63;4990172;28;20065;-77
2023/08/21 01:06:28;;;;;;;7.43;2.80;;;;;;;20.77;100.00;-18585.25;4987922;28;20054;-78
2023/08/21 01:09:25;;;;;;;6.95;3.10;;;;;;;20.59;100.00;-18580.63;4990723;28;20545;-77
2023/08/21 01:12:08;;;;;;;5.72;2.63;;;;;;;20.69;100.00;-18583.34;4989738;28;20034;-78
2023/08/21 01:14:54;;;;;;;5.20;2.90;;;;;;;20.65;100.00;-18582.09;4991714;28;20089;-77
2023/08/21 01:17:22;;;;;;;5.85;3.45;;;;;;;20.60;100.00;-18580.88;4998256;28;20113;-78
2023/08/21 01:19:49;;;;;;;5.28;3.38;;;;;;;20.58;100.00;-18580.22;4989996;28;22121;-78
2023/08/21 01:22:15;;;;;;;6.47;2.65;;;;;;;20.37;100.00;-18574.63;4991670;28;20057;-77
2023/08/21 01:24:40;;;;;;;7.55;3.40;;;;;;;20.25;100.00;-18571.63;4989873;28;20049;-78
2023/08/21 01:27:06;;;;;;;7.38;3.28;;;;;;;20.16;100.00;-18569.19;4990778;28;20152;-77
2023/08/21 01:29:35;;;;;;;5.97;2.90;;;;;;;20.38;100.00;-18575.03;4989964;28;20605;-77
2023/08/21 01:32:21;;;;;;;5.13;3.25;;;;;;;20.34;100.00;-18573.81;4991004;28;20608;-78
2023/08/21 01:34:49;;;;;;;5.25;3.03;;;;;;;20.37;100.00;-18574.75;4989005;28;20038;-78
2023/08/21 01:37:17;;;;;;;6.32;3.70;;;;;;;20.22;100.00;-18570.69;4992797;28;20038;-77
2023/08/21 01:39:42;;;;;;;6.88;3.50;;;;;;;20.20;100.00;-18570.28;4989039;28;20060;-78
2023/08/21 01:42:08;;;;;;;7.53;3.83;;;;;;;20.28;100.00;-18572.44;4990468;28;20556;-77
2023/08/21 01:44:33;;;;;;;9.43;3.45;;;;;;;20.25;100.00;-18571.63;4992176;28;20050;-77
2023/08/21 01:46:59;;;;;;;6.68;3.50;;;;;;;20.36;100.00;-18574.34;4989434;28;20042;-78
2023/08/21 01:49:24;;;;;;;9.90;3.70;;;;;;;20.42;100.00;-18576.13;4993233;28;20077;-77
2023/08/21 01:51:49;;;;;;;9.35;3.88;;;;;;;20.40;100.00;-18575.44;4990807;28;21382;-77
2023/08/21 01:54:15;;;;;;;8.30;3.50;;;;;;;20.20;100.00;-18570.13;4991716;28;20052;-78
2023/08/21 01:56:40;;;;;;;7.53;3.78;;;;;;;20.16;100.00;-18569.03;4988646;28;20077;-78
2023/08/21 01:59:06;;;;;;;6.30;3.53;;;;;;;20.19;100.00;-18570.00;4991409;28;20050;-78
2023/08/21 02:01:32;;;;;;;6.13;3.42;;;;;;;20.32;100.00;-18573.41;4989241;28;20108;-78
2023/08/21 02:03:57;;;;;;;7.45;3.40;;;;;;;20.38;100.00;-18574.91;4991052;28;20042;-77
2023/08/21 02:06:23;;;;;;;6.97;3.78;;;;;;;20.36;100.00;-18574.47;4990949;28;20093;-78
2023/08/21 02:08:49;;;;;;;5.60;3.17;;;;;;;20.29;100.00;-18572.59;4990005;28;20073;-78
2023/08/21 02:11:14;;;;;;;8.40;3.22;;;;;;;20.25;100.00;-18571.63;4990720;28;20290;-77
2023/08/21 02:13:39;;;;;;;5.90;2.70;;;;;;;20.19;100.00;-18570.00;4990175;28;20054;-77
2023/08/21 02:16:05;;;;;;;4.93;2.83;;;;;;;20.29;100.00;-18572.59;4989049;28;20042;-78
2023/08/21 02:18:30;;;;;;;5.78;3.05;;;;;;;20.16;100.00;-18569.03;4989850;28;20077;-78
2023/08/21 02:20:56;;;;;;;6.57;3.10;;;;;;;20.25;100.00;-18571.50;4989247;28;20038;-78
2023/08/21 02:23:21;;;;;;;5.10;2.90;;;;;;;20.35;100.00;-18574.22;4991627;28;20054;-78
2023/08/21 02:25:48;;;;;;;5.13;3.13;;;;;;;20.17;100.00;-18569.31;4987833;28;20046;-77
2023/08/21 02:28:14;;;;;;;5.93;3.50;;;;;;;20.24;100.00;-18571.22;4991529;28;20042;-78
2023/08/21 02:30:42;;;;;;;5.80;3.00;;;;;;;20.21;100.00;-18570.41;4989786;28;20050;-77
2023/08/21 02:33:08;;;;;;;5.47;3.20;;;;;;;20.29;100.00;-18572.59;4986440;28;20102;-77
2023/08/21 02:35:33;;;;;;;9.60;3.38;;;;;;;20.05;100.00;-18566.19;4987388;28;20262;-78
2023/08/21 02:37:58;;;;;;;7.13;3.10;;;;;;;20.09;100.00;-18567.13;4989400;28;20066;-77
2023/08/21 02:40:24;;;;;;;8.10;3.10;;;;;;;20.21;100.00;-18570.41;4991843;28;20054;-78
2023/08/21 02:42:49;;;;;;;6.63;3.33;;;;;;;20.35;100.00;-18574.22;4990145;28;20034;-78
2023/08/21 02:45:15;;;;;;;9.18;3.40;;;;;;;20.30;100.00;-18572.84;4993302;28;20040;-78
2023/08/21 02:47:41;;;;;;;4.55;3.25;;;;;;;20.23;100.00;-18571.09;4987617;28;20060;-77
2023/08/21 02:50:07;;;;;;;6.93;3.53;;;;;;;20.20;100.00;-18570.13;4987497;28;20445;-77
2023/08/21 02:52:33;;;;;;;5.03;3.50;;;;;;;20.43;100.00;-18576.41;4987796;28;20046;-77
2023/08/21 02:54:59;;;;;;;6.60;3.90;;;;;;;20.37;100.00;-18574.75;4987159;28;20046;-78
2023/08/21 02:57:25;;;;;;;4.95;3.22;;;;;;;20.23;100.00;-18570.94;4988498;28;20046;-78
2023/08/21 02:59:51;;;;;;;8.93;3.55;;;;;;;20.23;100.00;-18570.94;4986774;28;20046;-78
2023/08/21 03:02:17;;;;;;;9.63;3.92;;;;;;;20.45;100.00;-18576.78;4988697;28;20050;-77
2023/08/21 03:04:42;;;;;;;6.45;3.67;;;;;;;20.39;100.00;-18575.31;4985478;28;20108;-78
2023/08/21 03:07:08;;;;;;;6.60;3.50;;;;;;;20.43;100.00;-18576.41;4979626;28;20050;-78
2023/08/21 03:09:33;;;;;;;6.40;3.55;;;;;;;20.55;100.00;-18579.38;4986587;28;20048;-78
2023/08/21 03:11:59;;;;;;;8.43;3.10;;;;;;;20.45;100.00;-18576.94;4987664;28;20052;-78
2023/08/21 03:14:26;;;;;;;4.85;3.17;;;;;;;20.43;100.00;-18576.41;4986811;28;20042;-78
2023/08/21 03:16:52;;;;;;;6.43;3.20;;;;;;;20.31;100.00;-18573.13;4983369;28;20054;-78
2023/08/21 03:19:17;;;;;;;6.68;2.95;;;;;;;20.37;100.00;-18574.75;4989728;28;20114;-78
2023/08/21 03:21:43;;;;;;;5.18;2.83;;;;;;;20.54;100.00;-18579.13;5002924;28;20494;-78
2023/08/21 03:24:08;;;;;;;10.88;3.28;;;;;;;20.33;100.00;-18573.53;5000349;28;20465;-78
2023/08/21 03:26:34;;;;;;;5.15;3.20;;;;;;;20.33;100.00;-18573.53;4995123;28;20042;-78
2023/08/21 03:28:59;;;;;;;8.25;3.50;;;;;;;20.22;100.00;-18570.81;5003235;28;20077;-78
2023/08/21 03:31:25;;;;;;;7.05;3.33;;;;;;;20.15;100.00;-18568.78;4992588;28;20046;-78
2023/08/21 03:33:50;;;;;;;8.48;3.45;;;;;;;20.31;100.00;-18573.00;4992121;28;20480;-78
2023/08/21 03:36:15;;;;;;;5.53;3.63;;;;;;;20.27;100.00;-18572.03;4998138;28;20041;-79
2023/08/21 03:38:41;;;;;;;5.38;3.20;;;;;;;20.30;100.00;-18572.84;5000526;28;20042;-78
2023/08/21 03:41:06;;;;;;;6.03;3.63;;;;;;;20.23;100.00;-18570.94;4999986;28;20035;-78
2023/08/21 03:43:32;;;;;;;5.72;3.33;;;;;;;20.43;100.00;-18576.41;4997117;28;20120;-78
2023/08/21 03:45:58;;;;;;;9.13;3.35;;;;;;;20.53;100.00;-18578.97;4990781;28;20069;-78
2023/08/21 03:48:23;;;;;;;5.40;3.25;;;;;;;20.53;100.00;-18578.97;4989605;28;20495;-78
2023/08/21 03:50:49;;;;;;;9.10;4.22;;;;;;;20.45;100.00;-18576.94;4993762;28;20046;-78
2023/08/21 03:53:15;;;;;;;6.82;3.33;;;;;;;20.40;100.00;-18575.56;4998729;28;20039;-78
2023/08/21 03:55:40;;;;;;;6.07;3.40;;;;;;;20.45;100.00;-18576.94;4990772;28;20133;-78
2023/08/21 03:58:05;;;;;;;7.65;3.20;;;;;;;20.28;100.00;-18572.31;4989804;28;20490;-78
2023/08/21 04:00:31;;;;;;;5.78;3.50;;;;;;;20.17;100.00;-18569.31;4996790;28;20433;-78
2023/08/21 04:02:57;;;;;;;7.35;3.10;;;;;;;20.16;100.00;-18569.03;4989205;28;20035;-78
2023/08/21 04:05:23;;;;;;;6.47;3.42;;;;;;;20.15;100.00;-18568.78;4989961;28;20117;-78
2023/08/21 04:07:48;;;;;;;7.20;3.60;;;;;;;20.20;100.00;-18570.28;5006806;28;20539;-78
2023/08/21 04:10:13;;;;;;;7.47;3.60;;;;;;;20.18;100.00;-18569.59;5000699;28;20043;-78
2023/08/21 04:12:39;;;;;;;5.72;3.78;;;;;;;20.16;100.00;-18569.03;4996686;28;20046;-78
2023/08/21 04:15:06;;;;;;;6.53;3.60;;;;;;;20.08;100.00;-18566.88;5004793;28;20053;-78
2023/08/21 04:17:31;;;;;;;6.65;3.65;;;;;;;20.09;100.00;-18567.13;4989972;28;20039;-77
2023/08/21 04:19:57;;;;;;;7.72;3.72;;;;;;;20.23;100.00;-18571.09;4989072;28;20035;-78
2023/08/21 04:22:22;;;;;;;8.13;3.55;;;;;;;20.26;100.00;-18571.75;4991249;28;20074;-78
2023/08/21 04:24:48;;;;;;;6.80;3.40;;;;;;;20.22;100.00;-18570.69;5002719;28;20133;-78
2023/08/21 04:27:13;;;;;;;7.43;3.47;;;;;;;20.13;100.00;-18568.22;4992802;28;20117;-78
2023/08/21 04:29:39;;;;;;;9.55;3.25;;;;;;;19.94;100.00;-18563.19;5001048;28;20559;-78
2023/08/21 04:32:05;;;;;;;8.18;3.55;;;;;;;19.95;100.00;-18563.47;4993782;28;20038;-78
2023/08/21 04:34:32;;;;;;;7.47;3.33;;;;;;;20.12;100.00;-18567.97;4991796;28;20053;-78
2023/08/21 04:36:57;;;;;;;8.98;3.50;;;;;;;20.12;100.00;-18568.09;4986714;28;20039;-79
2023/08/21 04:39:23;;;;;;;7.43;3.75;;;;;;;20.15;100.00;-18568.78;4989890;28;20045;-79
2023/08/21 04:41:48;;;;;;;7.78;3.75;;;;;;;20.19;100.00;-18570.00;4996852;28;20712;-79
2023/08/21 04:44:13;;;;;;;6.25;3.88;;;;;;;20.16;100.00;-18569.03;5002863;28;20092;-79
2023/08/21 04:46:39;;;;;;;5.55;3.03;;;;;;;20.09;100.00;-18567.28;4990239;28;21189;-80
2023/08/21 04:49:04;;;;;;;7.80;3.60;;;;;;;20.03;100.00;-18565.78;4981772;28;20490;-79
2023/08/21 04:51:29;;;;;;;9.30;3.47;;;;;;;20.06;100.00;-18566.59;4989697;28;20038;-80
2023/08/21 04:53:55;;;;;;;7.93;3.30;;;;;;;20.08;100.00;-18566.88;4991939;28;20037;-80
2023/08/21 04:56:20;;;;;;;5.75;3.53;;;;;;;20.00;100.00;-18564.81;4997939;28;20034;-78
2023/08/21 04:58:45;;;;;;;7.43;3.47;;;;;;;19.99;100.00;-18564.69;4995855;28;20125;-81
2023/08/21 05:01:11;;;;;;;8.23;3.40;;;;;;;19.94;100.00;-18563.31;4987760;28;20038;-82
2023/08/21 05:03:36;;;;;;;8.65;3.72;;;;;;;19.97;100.00;-18564.00;4987227;28;20049;-79
2023/08/21 05:06:01;;;;;;;11.20;4.53;;;;;;;20.06;100.00;-18566.47;4990026;28;20433;-79
2023/08/21 05:08:27;;;;;;;7.10;3.90;;;;;;;20.22;100.00;-18570.81;4980028;28;20046;-79
2023/08/21 05:10:57;;;;;;;6.53;4.18;;;;;;;20.16;100.00;-18569.03;4986432;28;20038;-79
2023/08/21 05:13:22;;;;;;;9.82;4.43;;;;;;;20.17;100.00;-18569.44;4984299;28;20387;-80
2023/08/21 05:15:56;;;;;;;9.18;4.00;;;;;;;20.25;100.00;-18571.50;4976338;28;20053;-79
2023/08/21 05:18:22;;;;;;;10.10;4.90;;;;;;;20.37;100.00;-18574.75;4981119;28;20522;-80
2023/08/21 05:20:48;;;;;;;9.35;4.45;;;;;;;20.45;100.00;-18576.78;4991658;28;20162;-79
2023/08/21 05:23:14;;;;;;;7.10;4.18;;;;;;;20.54;100.00;-18579.13;4988058;28;20051;-79
2023/08/21 05:25:40;;;;;;;11.20;4.43;;;;;;;20.61;100.00;-18581.03;4989434;28;20520;-79
2023/08/21 05:28:06;;;;;;;6.43;4.32;;;;;;;20.65;100.00;-18582.09;4990685;28;20053;-79
2023/08/21 05:30:31;;;;;;;8.10;4.30;;;;;;;20.71;100.00;-18583.75;4989945;28;20038;-81
2023/08/21 05:32:57;;;;;;;6.68;4.07;;;;;;;20.66;100.00;-18582.53;4988897;28;20045;-80
2023/08/21 05:35:22;;;;;;;6.40;4.50;;;;;;;20.92;100.00;-18589.47;4987494;28;20124;-79
2023/08/21 05:37:47;;;;;;;7.32;4.90;;;;;;;21.01;100.00;-18591.78;4988936;28;20493;-78
2023/08/21 05:40:13;;;;;;;6.97;4.15;;;;;;;20.90;100.00;-18588.91;4990096;28;20129;-80
2023/08/21 05:42:38;;;;;;;8.70;4.40;;;;;;;21.03;100.00;-18592.31;4989215;28;20482;-79
2023/08/21 05:45:05;;;;;;;6.38;3.95;;;;;;;21.00;100.00;-18591.50;4984131;28;20054;-79
2023/08/21 05:47:30;;;;;;;5.95;3.63;;;;;;;21.29;100.00;-18599.09;4988213;28;20140;-79
2023/08/21 05:49:56;;;;;;;9.02;4.70;;;;;;;21.44;100.00;-18603.06;4987868;28;20669;-79
2023/08/21 05:52:22;;;;;;;9.20;4.28;;;;;;;21.57;100.00;-18606.59;4989123;28;20046;-79
2023/08/21 05:54:48;;;;;;;7.30;4.03;;;;;;;21.76;100.00;-18611.75;4988332;28;20050;-78
2023/08/21 05:57:14;;;;;;;6.82;3.47;;;;;;;21.90;100.00;-18615.28;4988413;28;20046;-79
2023/08/21 05:59:45;;;;;;;8.85;4.45;;;;;;;21.91;100.00;-18615.56;4986899;28;20490;-79
2023/08/21 06:02:11;;;;;;;9.20;3.80;;;;;;;22.11;100.00;-18621.00;4989922;28;20054;-80
2023/08/21 06:04:39;;;;;;;7.38;3.67;;;;;;;22.21;100.00;-18623.72;5005710;28;20085;-80
2023/08/21 06:07:04;;;;;;;7.63;3.60;;;;;;;22.31;100.00;-18626.28;4988403;28;20046;-80
2023/08/21 06:09:31;;;;;;;13.10;4.07;;;;;;;22.14;100.00;-18621.81;4986187;28;20049;-78
2023/08/21 06:11:57;;;;;;;8.68;3.78;;;;;;;22.09;100.00;-18620.44;4984890;28;20557;-79
2023/08/21 06:14:28;;;;;;;7.07;3.65;;;;;;;21.99;100.00;-18617.88;4983628;28;20050;-80
2023/08/21 06:16:56;;;;;;;6.25;3.35;;;;;;;21.90;100.00;-18615.44;4985757;28;20125;-80
2023/08/21 06:19:21;;;;;;;6.63;3.97;;;;;;;21.82;100.00;-18613.38;4987210;28;20053;-79
2023/08/21 06:21:47;;;;;;;11.27;3.92;;;;;;;21.90;100.00;-18615.44;4987574;28;20042;-80
2023/08/21 06:24:12;;;;;;;7.65;3.80;;;;;;;22.04;100.00;-18619.22;4987870;28;20062;-80
2023/08/21 06:26:37;;;;;;;7.90;3.97;;;;;;;22.18;100.00;-18622.91;4988409;28;20498;-80
2023/08/21 06:29:03;;;;;;;9.85;4.03;;;;;;;22.19;100.00;-18623.16;4988404;28;21456;-80
2023/08/21 06:31:28;;;;;;;7.05;3.35;;;;;;;22.34;100.00;-18626.97;4984634;28;20116;-79
2023/08/21 06:33:54;;;;;;;8.55;3.38;;;;;;;22.18;100.00;-18622.75;4985760;28;20110;-80
2023/08/21 06:36:19;;;;;;;12.13;3.65;;;;;;;22.23;100.00;-18624.25;4999492;28;20050;-80
2023/08/21 06:38:44;;;;;;;6.75;3.38;;;;;;;22.37;100.00;-18627.78;4987010;28;20054;-78
2023/08/21 06:41:10;;;;;;;7.30;2.97;;;;;;;22.32;100.00;-18626.44;4984246;28;20118;-80
2023/08/21 06:43:35;;;;;;;8.02;3.55;;;;;;;22.37;100.00;-18627.78;4986319;28;20104;-80
2023/08/21 06:46:01;;;;;;;9.65;3.00;;;;;;;22.49;100.00;-18631.19;4987002;28;20816;-81
2023/08/21 06:48:26;;;;;;;8.85;3.28;;;;;;;22.52;100.00;-18631.84;4989953;28;20121;-80
2023/08/21 06:50:52;;;;;;;11.63;3.17;;;;;;;22.60;100.00;-18633.91;4985938;28;20042;-79
2023/08/21 06:53:17;;;;;;;6.85;3.30;;;;;;;22.56;100.00;-18632.94;4987420;28;20050;-81
2023/08/21 06:55:45;;;;;;;11.07;3.80;;;;;;;22.67;100.00;-18635.78;4986438;28;20741;-79
2023/08/21 06:58:10;;;;;;;7.60;2.90;;;;;;;22.83;100.00;-18640.00;4988985;28;20057;-80
2023/08/21 07:00:36;;;;;;;6.30;3.05;;;;;;;22.75;100.00;-18638.09;4990753;28;20038;-80
2023/08/21 07:03:03;;;;;;;7.85;2.92;;;;;;;22.86;100.00;-18640.81;4992464;28;20046;-80
2023/08/21 07:05:28;;;;;;;7.28;2.70;;;;;;;22.70;100.00;-18636.75;4990102;28;20053;-81
2023/08/21 07:07:55;;;;;;;10.45;3.17;;;;;;;22.55;100.00;-18632.53;4991691;28;20110;-80
2023/08/21 07:10:20;;;;;;;7.82;2.88;;;;;;;22.48;100.00;-18630.91;4989327;28;20097;-80
2023/08/21 07:12:46;;;;;;;6.97;2.75;;;;;;;22.63;100.00;-18634.72;4988616;28;20051;-81
2023/08/21 07:15:11;;;;;;;11.07;2.90;;;;;;;22.72;100.00;-18637.28;4983762;28;20112;-81
2023/08/21 07:17:37;;;;;;;7.80;2.70;;;;;;;22.81;100.00;-18639.47;4984086;28;20045;-79
2023/08/21 07:20:03;;;;;;;7.50;3.10;;;;;;;22.92;100.00;-18642.44;4986958;28;20862;-80
2023/08/21 07:22:29;;;;;;;7.32;3.35;;;;;;;23.01;100.00;-18644.91;4988571;28;20413;-81
2023/08/21 07:24:55;;;;;;;8.70;3.40;;;;;;;23.07;100.00;-18646.53;4986724;28;20050;-80
2023/08/21 07:27:20;;;;;;;10.52;3.78;;;;;;;23.24;100.00;-18650.88;4986785;28;20042;-80
2023/08/21 07:29:46;;;;;;;8.30;3.30;;;;;;;23.38;100.00;-18654.66;4988471;28;20045;-80
2023/08/21 07:32:11;;;;;;;9.90;3.50;;;;;;;23.31;100.00;-18652.75;4986596;28;20081;-81
2023/08/21 07:34:36;;;;;;;8.57;3.33;;;;;;;23.31;100.00;-18652.91;4987688;28;20929;-80
2023/08/21 07:37:02;;;;;;;7.45;3.38;;;;;;;23.20;100.00;-18650.06;4987000;28;20038;-80
2023/08/21 07:39:27;;;;;;;11.27;3.67;;;;;;;23.22;100.00;-18650.31;4985932;28;20764;-82
2023/08/21 07:41:52;;;;;;;6.95;3.05;;;;;;;23.45;100.00;-18656.56;4988266;28;20053;-80
2023/08/21 07:44:19;;;;;;;8.68;3.42;;;;;;;23.46;100.00;-18656.69;4987834;28;20509;-80
2023/08/21 07:46:44;;;;;;;9.70;3.33;;;;;;;23.39;100.00;-18654.94;4985232;28;20133;-80
2023/08/21 07:49:09;;;;;;;9.48;3.55;;;;;;;23.59;100.00;-18660.34;4995368;28;20088;-80
2023/08/21 07:51:35;;;;;;;7.40;3.88;;;;;;;23.71;100.00;-18663.34;4989719;28;20038;-80
2023/08/21 07:54:01;;;;;;;6.88;3.13;;;;;;;23.51;100.00;-18658.19;4994287;28;20033;-80
2023/08/21 07:56:26;;;;;;;11.55;3.85;;;;;;;23.49;100.00;-18657.66;4992167;28;20050;-80
2023/08/21 07:58:52;;;;;;;9.45;2.92;;;;;;;23.67;100.00;-18662.25;4996166;28;20045;-81
2023/08/21 08:01:17;;;;;;;8.07;2.55;;;;;;;23.88;100.00;-18667.97;4995929;28;20046;-81
2023/08/21 08:03:42;;;;;;;9.88;2.55;;;;;;;23.73;100.00;-18663.88;4996969;28;20034;-81
2023/08/21 08:06:09;;;;;;;6.40;2.17;;;;;;;23.67;100.00;-18662.38;5011225;28;20070;-81
2023/08/21 08:08:34;;;;;;;5.60;2.00;;;;;;;23.82;100.00;-18666.31;4990820;28;20034;-80
2023/08/21 08:11:03;;;;;;;6.75;2.17;;;;;;;24.04;100.00;-18672.28;4990272;28;20042;-80
2023/08/21 08:13:29;;;;;;;5.22;2.00;;;;;;;24.24;100.00;-18677.44;4998102;28;20104;-80
2023/08/21 08:15:55;;;;;;;4.72;1.75;;;;;;;24.25;100.00;-18677.84;4990683;28;20038;-80
2023/08/21 08:18:20;;;;;;;7.85;1.77;;;;;;;24.59;100.00;-18686.78;4989271;28;20048;-81
2023/08/21 08:20:45;;;;;;;5.75;2.25;;;;;;;24.70;100.00;-18689.63;4989901;28;20572;-81
2023/08/21 08:23:11;;;;;;;7.38;1.98;;;;;;;24.75;100.00;-18691.13;4993376;28;20681;-79
2023/08/21 08:25:36;;;;;;;5.53;1.65;;;;;;;24.61;100.00;-18687.19;4994230;28;20050;-80
2023/08/21 08:28:02;;;;;;;5.57;1.75;;;;;;;24.60;100.00;-18686.94;4985695;28;20026;-79
2023/08/21 08:30:28;;;;;;;6.15;1.63;;;;;;;24.73;100.00;-18690.59;4985816;28;20034;-79
2023/08/21 08:32:53;;;;;;;6.40;1.83;;;;;;;24.79;100.00;-18691.94;4988697;28;20711;-79
2023/08/21 08:35:19;;;;;;;6.20;1.90;;;;;;;24.90;100.00;-18695.06;4989941;28;20046;-79
2023/08/21 08:37:44;;;;;;;4.25;1.70;;;;;;;24.86;100.00;-18693.97;4986475;28;20045;-79
2023/08/21 08:40:11;;;;;;;7.05;1.70;;;;;;;24.94;100.00;-18696.00;4987737;28;20409;-79
2023/08/21 08:42:36;;;;;;;6.07;1.73;;;;;;;25.16;100.00;-18701.97;4988640;28;20038;-79
2023/08/21 08:45:04;;;;;;;7.30;2.05;;;;;;;25.29;100.00;-18705.22;4990876;28;20458;-80
2023/08/21 08:47:33;;;;;;;3.47;1.20;;;;;;;25.24;100.00;-18704.00;4984815;28;20042;-80
2023/08/21 08:50:01;;;;;;;5.68;1.55;;;;;;;25.31;100.00;-18705.88;4983354;28;20836;-79
2023/08/21 08:52:27;;;;;;;5.30;1.05;;;;;;;25.57;98.66;-18712.78;4993788;28;20413;-79
2023/08/21 08:54:55;;;;;;;7.35;1.35;;;;;;;25.64;100.00;-18714.56;4985019;28;20034;-79
2023/08/21 08:57:20;;;;;;;7.00;1.37;;;;;;;25.83;96.58;-18719.56;4983423;28;20126;-79
2023/08/21 08:59:46;;;;;;;3.95;1.50;;;;;;;25.74;93.82;-18717.25;4989430;28;20452;-79
2023/08/21 09:02:11;;;;;;;5.97;1.40;;;;;;;25.93;91.81;-18722.13;4989527;28;20050;-79
2023/08/21 09:04:37;;;;;;;3.90;1.30;;;;;;;25.98;91.10;-18723.47;4992294;28;20754;-80
2023/08/21 09:07:12;;;;;;;7.68;1.58;;;;;;;25.85;96.54;-18720.22;5006164;28;20042;-80
2023/08/21 09:09:44;;;;;;;7.28;1.92;;;;;;;25.90;93.03;-18721.31;4996705;28;20038;-80
2023/08/21 09:12:12;;;;;;;3.83;1.13;;;;;;;26.07;91.15;-18725.91;4996880;28;20042;-80
2023/08/21 09:14:39;;;;;;;7.47;1.40;;;;;;;25.84;87.49;-18719.97;4999454;28;20034;-80
2023/08/21 09:17:05;;;;;;;3.35;1.35;;;;;;;25.74;91.83;-18717.25;4996714;28;20176;-80
2023/08/21 09:19:30;;;;;;;6.78;1.77;;;;;;;25.83;89.18;-18719.69;5005292;28;20086;-80
2023/08/21 09:21:55;;;;;;;3.45;1.38;;;;;;;25.92;91.09;-18722.00;4995224;28;20529;-80
2023/08/21 09:24:21;;;;;;;6.95;1.60;;;;;;;25.89;94.35;-18721.19;4992112;28;20053;-81
2023/08/21 09:26:47;;;;;;;5.65;1.25;;;;;;;26.23;91.37;-18730.09;4991837;28;20042;-79
2023/08/21 09:29:12;;;;;;;3.22;1.08;;;;;;;26.44;86.89;-18735.78;4990125;28;20042;-81
2023/08/21 09:31:37;;;;;;;6.32;1.30;;;;;;;26.40;82.90;-18734.56;4988473;28;20084;-81
2023/08/21 09:34:07;;;;;;;7.00;1.02;;;;;;;26.41;83.29;-18734.84;4988957;28;20049;-80
2023/08/21 09:36:33;;;;;;;5.68;0.95;;;;;;;26.53;80.39;-18738.09;4995772;28;20092;-80
2023/08/21 09:38:59;;;;;;;3.80;1.10;;;;;;;26.55;80.14;-18738.63;4992143;28;20114;-81
2023/08/21 09:41:26;;;;;;;7.18;1.10;;;;;;;26.65;80.19;-18741.31;4989828;28;20054;-81
2023/08/21 09:43:52;;;;;;;4.75;1.48;;;;;;;26.68;76.21;-18742.00;4989611;28;20044;-81
2023/08/21 09:46:24;;;;;;;3.92;1.30;;;;;;;26.66;82.69;-18741.59;4988576;28;20780;-79
2023/08/21 09:48:51;;;;;;;4.13;1.25;;;;;;;26.80;83.86;-18745.09;4993771;28;20046;-81
2023/08/21 09:51:16;;;;;;;4.95;1.35;;;;;;;27.15;76.57;-18754.56;4989005;28;20762;-81
2023/08/21 09:53:42;;;;;;;4.85;1.10;;;;;;;27.00;76.88;-18750.50;4983578;28;20057;-81
2023/08/21 09:56:08;;;;;;;6.18;1.38;;;;;;;27.07;77.80;-18752.25;4985250;28;20042;-80
2023/08/21 09:58:36;;;;;;;5.97;1.13;;;;;;;27.18;70.51;-18755.38;4985896;28;20073;-80
2023/08/21 10:01:10;;;;;;;4.28;0.98;;;;;;;27.33;69.83;-18759.28;4985329;28;20781;-79
2023/08/21 10:03:37;;;;;;;2.83;0.82;;;;;;;27.27;69.92;-18757.53;4985184;28;20564;-80
2023/08/21 10:06:03;;;;;;;4.30;1.33;;;;;;;27.40;68.62;-18761.06;4979960;28;20057;-81
2023/08/21 10:08:29;;;;;;;5.03;1.10;;;;;;;27.40;65.42;-18761.19;4986226;28;20533;-79
2023/08/21 10:10:56;;;;;;;3.40;0.90;;;;;;;27.33;66.42;-18759.16;4985213;28;20488;-79
2023/08/21 10:13:21;;;;;;;4.15;1.05;;;;;;;27.24;62.88;-18756.88;4991297;28;20038;-81
2023/08/21 10:15:47;;;;;;;2.28;1.17;;;;;;;27.42;65.30;-18761.59;4991066;28;20057;-81
2023/08/21 10:18:30;;;;;;;3.50;1.10;;;;;;;27.54;67.12;-18764.81;4991536;28;20933;-79
2023/08/21 10:20:56;;;;;;;5.10;1.00;;;;;;;27.60;66.93;-18766.44;5002148;28;20105;-78
2023/08/21 10:23:26;;;;;;;3.05;1.20;;;;;;;27.78;67.94;-18771.03;4989010;28;20039;-78
2023/08/21 10:25:59;;;;;;;2.45;1.00;;;;;;;27.96;66.72;-18775.75;4988021;28;20217;-78
2023/08/21 10:28:24;;;;;;;3.72;1.10;;;;;;;27.82;67.97;-18772.25;4969704;28;20130;-79
2023/08/21 10:30:50;;;;;;;4.15;0.85;;;;;;;27.94;72.34;-18775.34;4988017;28;20122;-78
2023/08/21 10:33:15;;;;;;;4.28;1.02;;;;;;;27.56;67.35;-18765.38;4989392;28;20046;-78
2023/08/21 10:35:40;;;;;;;6.28;1.15;;;;;;;27.91;67.99;-18774.56;4986385;28;20061;-78
2023/08/21 10:38:11;;;;;;;4.28;1.00;;;;;;;27.99;72.10;-18776.72;4988275;28;20070;-79
2023/08/21 10:40:37;;;;;;;5.30;1.00;;;;;;;28.28;74.64;-18784.25;4985418;28;20715;-79
2023/08/21 10:43:04;;;;;;;3.78;1.17;;;;;;;28.13;61.84;-18780.34;4987182;28;20100;-78
2023/08/21 10:45:30;;;;;;;4.38;1.10;;;;;;;28.31;62.03;-18785.06;4986193;28;20129;-78
2023/08/21 10:47:59;;;;;;;5.10;1.05;;;;;;;28.47;64.83;-18789.38;4986543;28;20038;-79
2023/08/21 10:50:24;;;;;;;4.07;1.05;;;;;;;28.11;58.54;-18779.94;4987070;28;20049;-79
2023/08/21 10:52:52;;;;;;;3.20;0.90;;;;;;;28.17;60.51;-18781.28;4988000;28;20129;-78
2023/08/21 10:55:18;;;;;;;5.57;1.00;;;;;;;28.12;64.36;-18780.09;4985399;28;20111;-78
2023/08/21 10:57:48;;;;;;;3.78;1.17;;;;;;;28.13;66.50;-18780.34;4986502;28;20081;-78
2023/08/21 11:00:16;;;;;;;3.30;1.08;;;;;;;27.80;63.91;-18771.59;4987814;28;20112;-79
2023/08/21 11:02:44;;;;;;;4.38;1.15;;;;;;;27.83;63.35;-18772.53;4987891;28;20053;-79
2023/08/21 11:05:11;;;;;;;4.43;1.23;;;;;;;27.93;65.03;-18774.94;4984274;28;20047;-80
2023/08/21 11:07:43;;;;;;;4.47;0.88;;;;;;;28.20;63.54;-18782.09;4991563;28;20137;-82
2023/08/21 11:10:13;;;;;;;5.22;1.20;;;;;;;27.95;59.21;-18775.63;4990541;28;20043;-79
2023/08/21 11:12:38;;;;;;;5.82;1.15;;;;;;;28.05;61.55;-18778.31;4987991;28;20038;-79
2023/08/21 11:15:05;;;;;;;4.00;1.42;;;;;;;27.94;64.52;-18775.22;4978417;28;20485;-80